sensor_id;sensor_type;location;lat;lon;timestamp;pressure;altitude;pressure_sealevel;temperature;humidity
80648;BME280;70012;0.000;0.000;2023-06-22T00:00:58;100819.50;;;20.83;66.35
80648;BME280;70012;0.000;0.000;2023-06-22T00:03:25;100833.28;;;20.88;67.14
80648;BME280;70012;0.000;0.000;2023-06-22T00:05:53;100830.22;;;20.90;67.50
80648;BME280;70012;0.000;0.000;2023-06-22T00:08:20;100814.16;;;20.73;66.90
80648;BME280;70012;0.000;0.000;2023-06-22T00:10:47;100827.13;;;20.77;66.92
80648;BME280;70012;0.000;0.000;2023-06-22T00:13:14;100829.50;;;20.84;67.56
80648;BME280;70012;0.000;0.000;2023-06-22T00:15:42;100841.16;;;20.86;67.90
80648;BME280;70012;0.000;0.000;2023-06-22T00:18:09;100850.94;;;20.84;67.50
80648;BME280;70012;0.000;0.000;2023-06-22T00:20:37;100856.00;;;20.82;65.99
80648;BME280;70012;0.000;0.000;2023-06-22T00:23:05;100854.94;;;20.77;66.10
80648;BME280;70012;0.000;0.000;2023-06-22T00:25:38;100854.66;;;20.79;66.56
80648;BME280;70012;0.000;0.000;2023-06-22T00:28:08;100845.47;;;20.78;66.47
80648;BME280;70012;0.000;0.000;2023-06-22T00:30:35;100850.75;;;20.80;67.69
80648;BME280;70012;0.000;0.000;2023-06-22T00:33:02;100837.44;;;20.77;67.66
80648;BME280;70012;0.000;0.000;2023-06-22T00:35:29;100849.78;;;20.71;67.70
80648;BME280;70012;0.000;0.000;2023-06-22T00:37:59;100843.13;;;20.72;66.96
80648;BME280;70012;0.000;0.000;2023-06-22T00:40:28;100850.59;;;20.71;67.17
80648;BME280;70012;0.000;0.000;2023-06-22T00:42:55;100848.69;;;20.72;67.14
80648;BME280;70012;0.000;0.000;2023-06-22T00:45:26;100851.13;;;20.73;67.54
80648;BME280;70012;0.000;0.000;2023-06-22T00:47:57;100851.22;;;20.68;67.01
80648;BME280;70012;0.000;0.000;2023-06-22T00:50:27;100852.88;;;20.69;67.03
80648;BME280;70012;0.000;0.000;2023-06-22T00:52:57;100849.56;;;20.67;68.25
80648;BME280;70012;0.000;0.000;2023-06-22T00:55:26;100854.59;;;20.65;68.57
80648;BME280;70012;0.000;0.000;2023-06-22T00:57:54;100847.72;;;20.62;68.51
80648;BME280;70012;0.000;0.000;2023-06-22T01:00:25;100851.13;;;20.59;67.59
80648;BME280;70012;0.000;0.000;2023-06-22T01:02:53;100842.56;;;20.56;67.42
80648;BME280;70012;0.000;0.000;2023-06-22T01:05:21;100845.34;;;20.56;67.77
80648;BME280;70012;0.000;0.000;2023-06-22T01:10:34;100837.63;;;20.53;67.96
80648;BME280;70012;0.000;0.000;2023-06-22T01:13:06;100834.31;;;20.51;67.35
80648;BME280;70012;0.000;0.000;2023-06-22T01:15:39;100838.25;;;20.50;68.57
80648;BME280;70012;0.000;0.000;2023-06-22T01:18:08;100827.94;;;20.50;67.86
80648;BME280;70012;0.000;0.000;2023-06-22T01:20:36;100818.78;;;20.50;67.87
80648;BME280;70012;0.000;0.000;2023-06-22T01:26:02;100820.72;;;20.49;68.92
80648;BME280;70012;0.000;0.000;2023-06-22T01:31:10;100816.81;;;20.50;68.43
80648;BME280;70012;0.000;0.000;2023-06-22T01:33:42;100817.13;;;20.48;69.13
80648;BME280;70012;0.000;0.000;2023-06-22T01:36:09;100812.69;;;20.47;69.25
80648;BME280;70012;0.000;0.000;2023-06-22T01:38:38;100812.19;;;20.45;69.23
80648;BME280;70012;0.000;0.000;2023-06-22T01:41:05;100811.16;;;20.41;69.37
80648;BME280;70012;0.000;0.000;2023-06-22T01:43:33;100808.97;;;20.38;68.39
80648;BME280;70012;0.000;0.000;2023-06-22T01:46:01;100806.19;;;20.38;68.86
80648;BME280;70012;0.000;0.000;2023-06-22T01:48:31;100802.59;;;20.38;69.82
80648;BME280;70012;0.000;0.000;2023-06-22T01:50:58;100808.78;;;20.35;69.55
80648;BME280;70012;0.000;0.000;2023-06-22T01:53:25;100807.97;;;20.34;69.22
80648;BME280;70012;0.000;0.000;2023-06-22T01:55:52;100798.06;;;20.28;69.45
80648;BME280;70012;0.000;0.000;2023-06-22T01:58:21;100803.09;;;20.26;70.46
80648;BME280;70012;0.000;0.000;2023-06-22T02:01:09;100803.22;;;20.21;70.04
80648;BME280;70012;0.000;0.000;2023-06-22T02:03:58;100801.34;;;20.16;69.98
80648;BME280;70012;0.000;0.000;2023-06-22T02:06:30;100802.19;;;20.17;70.29
80648;BME280;70012;0.000;0.000;2023-06-22T02:09:03;100810.00;;;20.14;70.15
80648;BME280;70012;0.000;0.000;2023-06-22T02:11:33;100798.47;;;20.07;69.94
80648;BME280;70012;0.000;0.000;2023-06-22T02:14:02;100801.25;;;20.07;70.42
80648;BME280;70012;0.000;0.000;2023-06-22T02:16:31;100806.28;;;20.05;71.29
80648;BME280;70012;0.000;0.000;2023-06-22T02:19:01;100806.06;;;20.02;71.55
80648;BME280;70012;0.000;0.000;2023-06-22T02:21:34;100800.00;;;19.99;71.61
80648;BME280;70012;0.000;0.000;2023-06-22T02:24:01;100806.38;;;20.00;71.91
80648;BME280;70012;0.000;0.000;2023-06-22T02:26:28;100800.28;;;19.98;71.84
80648;BME280;70012;0.000;0.000;2023-06-22T02:28:55;100805.03;;;19.97;71.18
80648;BME280;70012;0.000;0.000;2023-06-22T02:31:25;100800.28;;;19.98;71.37
80648;BME280;70012;0.000;0.000;2023-06-22T02:34:00;100797.50;;;19.98;71.52
80648;BME280;70012;0.000;0.000;2023-06-22T02:36:27;100799.69;;;20.01;71.78
80648;BME280;70012;0.000;0.000;2023-06-22T02:38:57;100794.13;;;20.01;71.25
80648;BME280;70012;0.000;0.000;2023-06-22T02:41:28;100785.81;;;20.01;71.53
80648;BME280;70012;0.000;0.000;2023-06-22T02:43:54;100794.13;;;20.01;72.33
80648;BME280;70012;0.000;0.000;2023-06-22T02:46:21;100794.94;;;20.02;72.36
80648;BME280;70012;0.000;0.000;2023-06-22T02:48:48;100794.44;;;19.99;71.98
80648;BME280;70012;0.000;0.000;2023-06-22T02:51:17;100800.28;;;19.98;72.85
80648;BME280;70012;0.000;0.000;2023-06-22T02:53:44;100798.16;;;19.95;72.40
80648;BME280;70012;0.000;0.000;2023-06-22T02:56:12;100789.06;;;19.89;72.70
80648;BME280;70012;0.000;0.000;2023-06-22T02:58:39;100782.16;;;19.87;73.03
80648;BME280;70012;0.000;0.000;2023-06-22T03:01:06;100779.78;;;19.80;73.19
80648;BME280;70012;0.000;0.000;2023-06-22T03:03:33;100781.91;;;19.69;74.01
80648;BME280;70012;0.000;0.000;2023-06-22T03:06:00;100776.13;;;19.65;74.44
80648;BME280;70012;0.000;0.000;2023-06-22T03:08:31;100774.69;;;19.68;74.48
80648;BME280;70012;0.000;0.000;2023-06-22T03:10:58;100772.25;;;19.66;74.17
80648;BME280;70012;0.000;0.000;2023-06-22T03:13:27;100758.63;;;19.65;74.57
80648;BME280;70012;0.000;0.000;2023-06-22T03:15:54;100760.28;;;19.66;73.90
80648;BME280;70012;0.000;0.000;2023-06-22T03:18:21;100747.53;;;19.65;73.65
80648;BME280;70012;0.000;0.000;2023-06-22T03:20:49;100752.25;;;19.64;74.12
80648;BME280;70012;0.000;0.000;2023-06-22T03:23:16;100758.94;;;19.63;74.14
80648;BME280;70012;0.000;0.000;2023-06-22T03:25:43;100753.97;;;19.60;74.15
80648;BME280;70012;0.000;0.000;2023-06-22T03:28:14;100759.34;;;19.57;74.27
80648;BME280;70012;0.000;0.000;2023-06-22T03:30:41;100762.13;;;19.57;74.54
80648;BME280;70012;0.000;0.000;2023-06-22T03:33:07;100754.09;;;19.55;74.14
80648;BME280;70012;0.000;0.000;2023-06-22T03:35:34;100752.44;;;19.54;74.27
80648;BME280;70012;0.000;0.000;2023-06-22T03:38:01;100745.25;;;19.53;74.26
80648;BME280;70012;0.000;0.000;2023-06-22T03:40:27;100746.06;;;19.54;74.21
80648;BME280;70012;0.000;0.000;2023-06-22T03:42:55;100747.72;;;19.55;74.31
80648;BME280;70012;0.000;0.000;2023-06-22T03:45:22;100736.59;;;19.55;74.24
80648;BME280;70012;0.000;0.000;2023-06-22T03:47:48;100730.22;;;19.54;74.52
80648;BME280;70012;0.000;0.000;2023-06-22T03:50:15;100731.06;;;19.55;74.94
80648;BME280;70012;0.000;0.000;2023-06-22T03:52:44;100739.06;;;19.56;75.22
80648;BME280;70012;0.000;0.000;2023-06-22T03:55:13;100739.91;;;19.57;75.08
80648;BME280;70012;0.000;0.000;2023-06-22T03:57:39;100740.41;;;19.59;74.77
80648;BME280;70012;0.000;0.000;2023-06-22T04:00:06;100730.16;;;19.59;74.60
80648;BME280;70012;0.000;0.000;2023-06-22T04:02:34;100720.97;;;19.59;74.85
80648;BME280;70012;0.000;0.000;2023-06-22T04:05:01;100737.03;;;19.62;74.80
80648;BME280;70012;0.000;0.000;2023-06-22T04:07:30;100730.88;;;19.65;74.88
80648;BME280;70012;0.000;0.000;2023-06-22T04:09:57;100720.81;;;19.69;74.96
80648;BME280;70012;0.000;0.000;2023-06-22T04:12:23;100730.47;;;19.72;75.48
80648;BME280;70012;0.000;0.000;2023-06-22T04:14:50;100719.06;;;19.73;75.17
80648;BME280;70012;0.000;0.000;2023-06-22T04:17:17;100729.25;;;19.78;75.42
80648;BME280;70012;0.000;0.000;2023-06-22T04:19:44;100723.69;;;19.78;75.81
80648;BME280;70012;0.000;0.000;2023-06-22T04:22:10;100725.94;;;19.76;75.50
80648;BME280;70012;0.000;0.000;2023-06-22T04:24:38;100734.59;;;19.74;75.11
80648;BME280;70012;0.000;0.000;2023-06-22T04:27:05;100733.97;;;19.77;74.51
80648;BME280;70012;0.000;0.000;2023-06-22T04:29:32;100731.72;;;19.79;75.40
80648;BME280;70012;0.000;0.000;2023-06-22T04:32:01;100733.38;;;19.80;75.23
80648;BME280;70012;0.000;0.000;2023-06-22T04:34:31;100738.38;;;19.78;75.32
80648;BME280;70012;0.000;0.000;2023-06-22T04:36:58;100739.72;;;19.81;75.42
80648;BME280;70012;0.000;0.000;2023-06-22T04:39:25;100745.00;;;19.82;74.70
80648;BME280;70012;0.000;0.000;2023-06-22T04:41:53;100749.22;;;19.80;74.60
80648;BME280;70012;0.000;0.000;2023-06-22T04:44:21;100745.59;;;19.79;74.83
80648;BME280;70012;0.000;0.000;2023-06-22T04:46:53;100744.47;;;19.80;75.39
80648;BME280;70012;0.000;0.000;2023-06-22T04:49:21;100744.47;;;19.80;76.28
80648;BME280;70012;0.000;0.000;2023-06-22T04:51:48;100751.16;;;19.79;75.77
80648;BME280;70012;0.000;0.000;2023-06-22T04:54:18;100741.16;;;19.78;75.97
80648;BME280;70012;0.000;0.000;2023-06-22T04:56:45;100742.28;;;19.77;76.39
80648;BME280;70012;0.000;0.000;2023-06-22T04:59:14;100749.28;;;19.75;76.40
80648;BME280;70012;0.000;0.000;2023-06-22T05:01:41;100744.47;;;19.80;76.21
80648;BME280;70012;0.000;0.000;2023-06-22T05:04:08;100743.91;;;19.83;75.57
80648;BME280;70012;0.000;0.000;2023-06-22T05:06:35;100741.63;;;19.86;75.38
80648;BME280;70012;0.000;0.000;2023-06-22T05:09:05;100745.94;;;19.92;75.27
80648;BME280;70012;0.000;0.000;2023-06-22T05:11:31;100741.94;;;19.98;75.93
80648;BME280;70012;0.000;0.000;2023-06-22T05:13:58;100743.50;;;20.04;75.88
80648;BME280;70012;0.000;0.000;2023-06-22T05:16:25;100732.19;;;20.14;75.77
80648;BME280;70012;0.000;0.000;2023-06-22T05:18:54;100731.97;;;20.25;76.13
80648;BME280;70012;0.000;0.000;2023-06-22T05:21:23;100734.56;;;20.35;75.94
80648;BME280;70012;0.000;0.000;2023-06-22T05:23:52;100738.53;;;20.43;75.60
80648;BME280;70012;0.000;0.000;2023-06-22T05:26:20;100732.56;;;20.50;74.72
80648;BME280;70012;0.000;0.000;2023-06-22T05:28:47;100734.59;;;20.58;73.78
80648;BME280;70012;0.000;0.000;2023-06-22T05:31:15;100726.16;;;20.63;72.92
80648;BME280;70012;0.000;0.000;2023-06-22T05:33:43;100725.16;;;20.73;73.05
80648;BME280;70012;0.000;0.000;2023-06-22T05:36:10;100725.75;;;20.84;73.74
80648;BME280;70012;0.000;0.000;2023-06-22T05:38:37;100724.03;;;20.97;72.66
80648;BME280;70012;0.000;0.000;2023-06-22T05:41:05;100727.53;;;21.02;72.87
80648;BME280;70012;0.000;0.000;2023-06-22T05:43:32;100733.47;;;21.09;71.88
80648;BME280;70012;0.000;0.000;2023-06-22T05:46:00;100728.91;;;21.14;71.05
80648;BME280;70012;0.000;0.000;2023-06-22T05:48:27;100738.78;;;21.20;70.57
80648;BME280;70012;0.000;0.000;2023-06-22T05:50:54;100743.09;;;21.26;71.17
80648;BME280;70012;0.000;0.000;2023-06-22T05:53:21;100747.38;;;21.32;70.68
80648;BME280;70012;0.000;0.000;2023-06-22T05:55:50;100752.53;;;21.39;70.38
80648;BME280;70012;0.000;0.000;2023-06-22T05:58:17;100755.38;;;21.48;70.73
80648;BME280;70012;0.000;0.000;2023-06-22T06:00:44;100753.28;;;21.53;69.87
80648;BME280;70012;0.000;0.000;2023-06-22T06:03:12;100757.59;;;21.59;70.63
80648;BME280;70012;0.000;0.000;2023-06-22T06:05:44;100757.16;;;21.66;71.12
80648;BME280;70012;0.000;0.000;2023-06-22T06:08:13;100761.44;;;21.72;70.45
80648;BME280;70012;0.000;0.000;2023-06-22T06:10:39;100754.91;;;21.77;70.21
80648;BME280;70012;0.000;0.000;2023-06-22T06:13:06;100743.94;;;21.81;69.63
80648;BME280;70012;0.000;0.000;2023-06-22T06:15:34;100758.25;;;21.88;70.18
80648;BME280;70012;0.000;0.000;2023-06-22T06:18:01;100762.03;;;21.92;70.62
80648;BME280;70012;0.000;0.000;2023-06-22T06:20:31;100761.41;;;21.95;70.72
80648;BME280;70012;0.000;0.000;2023-06-22T06:22:58;100766.19;;;22.03;70.10
80648;BME280;70012;0.000;0.000;2023-06-22T06:25:25;100774.94;;;22.11;70.04
80648;BME280;70012;0.000;0.000;2023-06-22T06:27:52;100772.47;;;22.18;69.26
80648;BME280;70012;0.000;0.000;2023-06-22T06:30:21;100778.03;;;22.18;69.11
80648;BME280;70012;0.000;0.000;2023-06-22T06:32:49;100778.19;;;22.13;68.37
80648;BME280;70012;0.000;0.000;2023-06-22T06:35:16;100778.19;;;22.13;68.61
80648;BME280;70012;0.000;0.000;2023-06-22T06:37:46;100775.41;;;22.13;68.97
80648;BME280;70012;0.000;0.000;2023-06-22T06:40:14;100779.50;;;22.15;69.14
80648;BME280;70012;0.000;0.000;2023-06-22T06:42:43;100759.69;;;22.17;69.45
80648;BME280;70012;0.000;0.000;2023-06-22T06:45:12;100751.81;;;22.19;69.74
80648;BME280;70012;0.000;0.000;2023-06-22T06:47:39;100746.41;;;22.22;69.31
80648;BME280;70012;0.000;0.000;2023-06-22T06:50:07;100744.94;;;22.25;69.27
80648;BME280;70012;0.000;0.000;2023-06-22T06:52:36;100751.53;;;22.29;69.46
80648;BME280;70012;0.000;0.000;2023-06-22T06:55:05;100753.63;;;22.73;68.59
80648;BME280;70012;0.000;0.000;2023-06-22T06:57:39;100752.13;;;22.75;67.80
80648;BME280;70012;0.000;0.000;2023-06-22T07:00:06;100737.88;;;23.12;67.23
80648;BME280;70012;0.000;0.000;2023-06-22T07:02:38;100733.47;;;23.20;66.58
80648;BME280;70012;0.000;0.000;2023-06-22T07:05:06;100728.84;;;23.15;66.65
80648;BME280;70012;0.000;0.000;2023-06-22T07:07:33;100723.91;;;23.12;66.23
80648;BME280;70012;0.000;0.000;2023-06-22T07:10:04;100725.56;;;23.13;66.53
80648;BME280;70012;0.000;0.000;2023-06-22T07:12:32;100707.03;;;23.17;67.81
80648;BME280;70012;0.000;0.000;2023-06-22T07:15:03;100718.53;;;23.24;67.09
80648;BME280;70012;0.000;0.000;2023-06-22T07:17:31;100722.78;;;23.22;66.66
80648;BME280;70012;0.000;0.000;2023-06-22T07:19:58;100716.22;;;23.26;66.45
80648;BME280;70012;0.000;0.000;2023-06-22T07:22:26;100716.22;;;23.26;65.97
80648;BME280;70012;0.000;0.000;2023-06-22T07:24:53;100716.22;;;23.26;66.47
80648;BME280;70012;0.000;0.000;2023-06-22T07:27:19;100713.91;;;23.28;66.33
80648;BME280;70012;0.000;0.000;2023-06-22T07:29:47;100703.72;;;23.32;66.24
80648;BME280;70012;0.000;0.000;2023-06-22T07:32:15;100707.69;;;23.31;65.65
80648;BME280;70012;0.000;0.000;2023-06-22T07:34:42;100708.13;;;23.42;65.49
80648;BME280;70012;0.000;0.000;2023-06-22T07:37:09;100695.78;;;23.52;64.77
80648;BME280;70012;0.000;0.000;2023-06-22T07:39:36;100698.41;;;23.57;64.78
80648;BME280;70012;0.000;0.000;2023-06-22T07:42:04;100691.16;;;23.65;64.85
80648;BME280;70012;0.000;0.000;2023-06-22T07:44:31;100683.84;;;23.81;65.53
80648;BME280;70012;0.000;0.000;2023-06-22T07:46:58;100692.84;;;23.87;63.97
80648;BME280;70012;0.000;0.000;2023-06-22T07:49:24;100691.06;;;23.91;64.47
80648;BME280;70012;0.000;0.000;2023-06-22T07:51:51;100689.06;;;23.92;64.75
80648;BME280;70012;0.000;0.000;2023-06-22T07:54:18;100691.34;;;23.98;66.13
80648;BME280;70012;0.000;0.000;2023-06-22T07:56:46;100698.22;;;24.10;64.99
80648;BME280;70012;0.000;0.000;2023-06-22T07:59:12;100688.44;;;24.25;64.91
80648;BME280;70012;0.000;0.000;2023-06-22T08:01:40;100680.94;;;24.38;65.91
80648;BME280;70012;0.000;0.000;2023-06-22T08:04:07;100682.47;;;24.56;64.63
80648;BME280;70012;0.000;0.000;2023-06-22T08:06:35;100679.31;;;24.58;62.79
80648;BME280;70012;0.000;0.000;2023-06-22T08:09:02;100671.41;;;24.60;63.04
80648;BME280;70012;0.000;0.000;2023-06-22T08:11:31;100652.44;;;24.66;64.40
80648;BME280;70012;0.000;0.000;2023-06-22T08:13:57;100649.59;;;24.74;64.13
80648;BME280;70012;0.000;0.000;2023-06-22T08:16:25;100641.91;;;24.84;63.73
80648;BME280;70012;0.000;0.000;2023-06-22T08:18:52;100646.75;;;24.96;64.03
80648;BME280;70012;0.000;0.000;2023-06-22T08:21:19;100628.09;;;25.00;63.69
80648;BME280;70012;0.000;0.000;2023-06-22T08:23:46;100637.22;;;25.09;62.74
80648;BME280;70012;0.000;0.000;2023-06-22T08:26:13;100635.84;;;25.15;62.01
80648;BME280;70012;0.000;0.000;2023-06-22T08:28:40;100627.09;;;25.17;62.00
80648;BME280;70012;0.000;0.000;2023-06-22T08:31:06;100633.97;;;25.19;62.15
80648;BME280;70012;0.000;0.000;2023-06-22T08:33:33;100627.22;;;25.20;61.94
80648;BME280;70012;0.000;0.000;2023-06-22T08:36:00;100625.03;;;25.26;61.89
80648;BME280;70012;0.000;0.000;2023-06-22T08:38:26;100626.91;;;25.34;61.71
80648;BME280;70012;0.000;0.000;2023-06-22T08:40:53;100616.03;;;25.33;62.30
80648;BME280;70012;0.000;0.000;2023-06-22T08:43:20;100615.84;;;25.38;61.27
80648;BME280;70012;0.000;0.000;2023-06-22T08:45:47;100617.00;;;25.37;60.97
80648;BME280;70012;0.000;0.000;2023-06-22T08:48:14;100610.91;;;25.35;61.31
80648;BME280;70012;0.000;0.000;2023-06-22T08:50:40;100602.84;;;25.33;61.12
80648;BME280;70012;0.000;0.000;2023-06-22T08:53:07;100594.09;;;25.35;61.86
80648;BME280;70012;0.000;0.000;2023-06-22T08:55:34;100594.94;;;25.35;61.88
80648;BME280;70012;0.000;0.000;2023-06-22T08:58:00;100594.25;;;25.38;61.52
80648;BME280;70012;0.000;0.000;2023-06-22T09:00:27;100593.09;;;25.39;61.94
80648;BME280;70012;0.000;0.000;2023-06-22T09:02:55;100589.25;;;25.44;61.70
80648;BME280;70012;0.000;0.000;2023-06-22T09:05:25;100580.13;;;25.47;61.94
80648;BME280;70012;0.000;0.000;2023-06-22T09:07:53;100576.88;;;25.45;61.31
80648;BME280;70012;0.000;0.000;2023-06-22T09:10:22;100581.06;;;25.51;61.45
80648;BME280;70012;0.000;0.000;2023-06-22T09:12:49;100576.50;;;25.59;62.06
80648;BME280;70012;0.000;0.000;2023-06-22T09:15:16;100570.22;;;25.62;61.64
80648;BME280;70012;0.000;0.000;2023-06-22T09:17:44;100562.38;;;25.68;60.80
80648;BME280;70012;0.000;0.000;2023-06-22T09:20:13;100548.34;;;25.80;61.10
80648;BME280;70012;0.000;0.000;2023-06-22T09:22:40;100547.75;;;25.87;60.28
80648;BME280;70012;0.000;0.000;2023-06-22T09:25:07;100545.28;;;25.98;59.79
80648;BME280;70012;0.000;0.000;2023-06-22T09:27:34;100540.16;;;26.12;60.66
80648;BME280;70012;0.000;0.000;2023-06-22T09:30:00;100530.00;;;26.36;59.01
80648;BME280;70012;0.000;0.000;2023-06-22T09:32:27;100533.22;;;26.50;58.97
80648;BME280;70012;0.000;0.000;2023-06-22T09:34:54;100527.44;;;26.59;58.74
80648;BME280;70012;0.000;0.000;2023-06-22T09:37:20;100539.19;;;26.77;58.77
80648;BME280;70012;0.000;0.000;2023-06-22T09:39:47;100534.47;;;26.81;58.80
80648;BME280;70012;0.000;0.000;2023-06-22T09:42:14;100531.25;;;26.79;57.79
80648;BME280;70012;0.000;0.000;2023-06-22T09:44:41;100527.75;;;26.70;57.99
80648;BME280;70012;0.000;0.000;2023-06-22T09:47:07;100532.44;;;26.66;58.61
80648;BME280;70012;0.000;0.000;2023-06-22T09:49:34;100532.25;;;26.59;59.02
80648;BME280;70012;0.000;0.000;2023-06-22T09:52:13;100536.09;;;26.38;57.99
80648;BME280;70012;0.000;0.000;2023-06-22T09:54:42;100537.03;;;26.30;58.60
80648;BME280;70012;0.000;0.000;2023-06-22T09:57:09;100531.00;;;26.15;58.67
80648;BME280;70012;0.000;0.000;2023-06-22T09:59:36;100534.19;;;26.01;60.37
80648;BME280;70012;0.000;0.000;2023-06-22T10:02:03;100541.53;;;25.94;60.05
80648;BME280;70012;0.000;0.000;2023-06-22T10:04:30;100550.09;;;25.85;60.81
80648;BME280;70012;0.000;0.000;2023-06-22T10:06:57;100554.66;;;25.77;60.76
80648;BME280;70012;0.000;0.000;2023-06-22T10:09:24;100581.53;;;25.66;61.34
80648;BME280;70012;0.000;0.000;2023-06-22T10:11:50;100585.03;;;25.50;61.80
80648;BME280;70012;0.000;0.000;2023-06-22T10:14:18;100580.44;;;25.33;63.78
80648;BME280;70012;0.000;0.000;2023-06-22T10:16:44;100585.81;;;25.26;63.47
80648;BME280;70012;0.000;0.000;2023-06-22T10:19:11;100597.56;;;25.19;65.83
80648;BME280;70012;0.000;0.000;2023-06-22T10:21:38;100599.66;;;25.10;66.12
80648;BME280;70012;0.000;0.000;2023-06-22T10:24:05;100604.53;;;25.01;66.42
80648;BME280;70012;0.000;0.000;2023-06-22T10:26:35;100621.41;;;24.92;65.79
80648;BME280;70012;0.000;0.000;2023-06-22T10:29:03;100628.25;;;24.82;66.69
80648;BME280;70012;0.000;0.000;2023-06-22T10:31:32;100631.59;;;24.75;68.60
80648;BME280;70012;0.000;0.000;2023-06-22T10:33:59;100637.09;;;24.72;69.75
80648;BME280;70012;0.000;0.000;2023-06-22T10:36:27;100643.91;;;24.62;69.86
80648;BME280;70012;0.000;0.000;2023-06-22T10:38:54;100648.88;;;24.56;71.74
80648;BME280;70012;0.000;0.000;2023-06-22T10:41:22;100643.69;;;24.46;71.37
80648;BME280;70012;0.000;0.000;2023-06-22T10:43:49;100642.66;;;24.29;71.80
80648;BME280;70012;0.000;0.000;2023-06-22T10:46:15;100640.94;;;24.16;72.36
80648;BME280;70012;0.000;0.000;2023-06-22T10:48:42;100644.31;;;24.01;72.43
80648;BME280;70012;0.000;0.000;2023-06-22T10:51:09;100652.56;;;23.88;73.40
80648;BME280;70012;0.000;0.000;2023-06-22T10:53:36;100649.22;;;23.65;75.15
80648;BME280;70012;0.000;0.000;2023-06-22T10:56:03;100626.25;;;23.50;74.75
80648;BME280;70012;0.000;0.000;2023-06-22T10:58:30;100620.91;;;23.37;76.40
80648;BME280;70012;0.000;0.000;2023-06-22T11:00:57;100616.66;;;23.30;77.04
80648;BME280;70012;0.000;0.000;2023-06-22T11:03:25;100623.56;;;23.24;77.57
80648;BME280;70012;0.000;0.000;2023-06-22T11:05:52;100608.97;;;23.10;78.83
80648;BME280;70012;0.000;0.000;2023-06-22T11:08:18;100597.28;;;23.08;79.10
80648;BME280;70012;0.000;0.000;2023-06-22T11:10:45;100637.06;;;23.05;79.97
80648;BME280;70012;0.000;0.000;2023-06-22T11:13:12;100651.66;;;23.01;79.82
80648;BME280;70012;0.000;0.000;2023-06-22T11:15:40;100643.78;;;23.03;79.70
80648;BME280;70012;0.000;0.000;2023-06-22T11:18:06;100596.34;;;23.03;79.20
80648;BME280;70012;0.000;0.000;2023-06-22T11:20:34;100549.88;;;22.99;79.17
80648;BME280;70012;0.000;0.000;2023-06-22T11:23:05;100532.28;;;22.98;80.10
80648;BME280;70012;0.000;0.000;2023-06-22T11:25:35;100522.75;;;22.99;80.60
80648;BME280;70012;0.000;0.000;2023-06-22T11:28:03;100505.03;;;22.95;79.96
80648;BME280;70012;0.000;0.000;2023-06-22T11:30:30;100490.13;;;22.91;80.39
80648;BME280;70012;0.000;0.000;2023-06-22T11:32:58;100485.31;;;23.00;81.79
80648;BME280;70012;0.000;0.000;2023-06-22T11:35:27;100504.00;;;23.09;81.50
80648;BME280;70012;0.000;0.000;2023-06-22T11:37:56;100519.94;;;23.17;80.47
80648;BME280;70012;0.000;0.000;2023-06-22T11:40:26;100519.00;;;23.43;81.42
80648;BME280;70012;0.000;0.000;2023-06-22T11:42:53;100524.66;;;23.85;82.67
80648;BME280;70012;0.000;0.000;2023-06-22T11:45:23;100523.47;;;24.16;79.69
80648;BME280;70012;0.000;0.000;2023-06-22T11:47:50;100521.25;;;24.43;76.95
80648;BME280;70012;0.000;0.000;2023-06-22T11:50:26;100516.97;;;24.79;74.13
80648;BME280;70012;0.000;0.000;2023-06-22T11:53:12;100499.31;;;25.24;72.24
80648;BME280;70012;0.000;0.000;2023-06-22T11:55:50;100485.75;;;25.26;71.97
80648;BME280;70012;0.000;0.000;2023-06-22T11:58:23;100485.41;;;25.16;72.22
80648;BME280;70012;0.000;0.000;2023-06-22T12:00:53;100463.69;;;24.88;72.28
80648;BME280;70012;0.000;0.000;2023-06-22T12:03:23;100456.31;;;24.71;73.23
80648;BME280;70012;0.000;0.000;2023-06-22T12:06:02;100450.28;;;24.48;73.80
80648;BME280;70012;0.000;0.000;2023-06-22T12:08:35;100448.41;;;24.39;74.89
80648;BME280;70012;0.000;0.000;2023-06-22T12:11:04;100431.91;;;24.25;74.72
80648;BME280;70012;0.000;0.000;2023-06-22T12:13:31;100438.88;;;24.19;74.41
80648;BME280;70012;0.000;0.000;2023-06-22T12:15:59;100430.97;;;24.21;75.20
80648;BME280;70012;0.000;0.000;2023-06-22T12:18:26;100433.94;;;24.04;74.63
80648;BME280;70012;0.000;0.000;2023-06-22T12:20:52;100429.38;;;23.99;75.12
80648;BME280;70012;0.000;0.000;2023-06-22T12:23:20;100433.94;;;24.04;74.82
80648;BME280;70012;0.000;0.000;2023-06-22T12:25:57;100414.66;;;24.23;75.50
80648;BME280;70012;0.000;0.000;2023-06-22T12:28:43;100420.53;;;24.43;74.98
80648;BME280;70012;0.000;0.000;2023-06-22T12:31:13;100424.81;;;24.74;75.10
80648;BME280;70012;0.000;0.000;2023-06-22T12:33:46;100401.63;;;24.98;74.43
80648;BME280;70012;0.000;0.000;2023-06-22T12:39:59;100404.38;;;25.88;71.39
80648;BME280;70012;0.000;0.000;2023-06-22T12:42:35;100408.88;;;26.05;70.76
80648;BME280;70012;0.000;0.000;2023-06-22T12:45:34;100377.19;;;26.17;68.95
80648;BME280;70012;0.000;0.000;2023-06-22T12:48:01;100389.78;;;26.24;68.05
80648;BME280;70012;0.000;0.000;2023-06-22T12:50:28;100386.41;;;26.34;67.34
80648;BME280;70012;0.000;0.000;2023-06-22T12:52:58;100381.28;;;26.52;68.47
80648;BME280;70012;0.000;0.000;2023-06-22T12:55:27;100389.91;;;26.75;66.68
80648;BME280;70012;0.000;0.000;2023-06-22T12:58:04;100387.28;;;26.82;67.08
80648;BME280;70012;0.000;0.000;2023-06-22T13:00:34;100376.75;;;26.63;65.20
80648;BME280;70012;0.000;0.000;2023-06-22T13:03:01;100359.00;;;26.59;66.61
80648;BME280;70012;0.000;0.000;2023-06-22T13:05:28;100364.44;;;26.68;64.99
80648;BME280;70012;0.000;0.000;2023-06-22T13:07:55;100369.44;;;26.59;64.89
80648;BME280;70012;0.000;0.000;2023-06-22T13:10:24;100358.22;;;26.59;65.00
80648;BME280;70012;0.000;0.000;2023-06-22T13:16:13;100355.09;;;26.96;63.18
80648;BME280;70012;0.000;0.000;2023-06-22T13:18:52;100351.81;;;27.10;63.27
80648;BME280;70012;0.000;0.000;2023-06-22T13:25:04;100344.53;;;27.25;62.28